Impacts TAF Board
For situational awareness. Not to be used for flight planning purposes.
IDs:

KLAS - Las Vegas/McCarran I, NV, US

Issued at 0245 UTC 10 Dec 2018
Updated at 0404 UTC 10 Dec 2018
Potential Impact None Slight Moderate High
Time0356Z 10/05Z 10/06Z 10/07Z 10/08Z 10/09Z 10/10Z 10/11Z 10/12Z 10/13Z 10/14Z 10/15Z 10/16Z 10/17Z>>
Type OBS PRVL PRVL PRVL PRVL PRVL PRVL PRVL PRVL PRVL PRVL PRVL PRVL PRVL
VIS 10 >6 >6 >6 >6 >6 >6 >6 >6 >6 >6 >6 >6 >6
CIG 250 200 200 200 200 200 200 200 200 200 200 200 200 200
Cover BKN BKN BKN BKN BKN BKN BKN BKN BKN BKN BKN BKN BKN BKN
FltCat VFR VFR VFR VFR VFR VFR VFR VFR VFR VFR VFR VFR VFR VFR
WX -- -- -- -- -- -- -- -- -- -- -- -- -- --
WDir 230 210 210 210 210 210 210 210 210 210 210 VRB VRB VRB
WSpd 6 5 5 5 5 5 5 5 5 5 5 4 4 4
WGst -- -- -- -- -- -- -- -- -- -- -- -- -- --
Raw TAF
KLAS 100245Z 1003/1106 21005KT P6SM BKN200
  FM101500 VRB04KT P6SM BKN200
  FM102100 11006KT P6SM BKN200


Raw METAR
KLAS 100356Z 23006KT 10SM BKN250 11/02 A3029 RMK AO2 SLP258 T01060022
KLAS 100256Z 22005KT 10SM BKN250 12/02 A3029 RMK AO2 SLP257 T01170022 58001
KLAS 100156Z 00000KT 10SM BKN250 13/01 A3029 RMK AO2 SLP258 T01330011

METAR Board
Radar Display
Forecast Discussion
For situational awareness. Not to be used for flight planning purposes.